| time (UTC) | temp F | wind direction | speed MPH | gust MPH | rain 1hr in | rain 24hr in | rain mn in | humidity % | barometer mb |
| 20260906130736 | 67 | 189 | 0.0 | 0.0 | 0.00 | 0.00 | 0.00 | 42 | 1030.1 |
| 20260906125834 | 67 | 196 | 0.0 | 0.0 | 0.00 | 0.00 | 0.00 | 42 | 1030.3 |
| 20260906124835 | 67 | 186 | 0.0 | 0.0 | 0.00 | 0.00 | 0.00 | 40 | 1030.5 |
| 20260906123835 | 67 | 191 | 0.0 | 0.0 | 0.00 | 0.00 | 0.00 | 42 | 1030.4 |
| 20260906122835 | 67 | 117 | 0.0 | 0.0 | 0.00 | 0.00 | 0.00 | 41 | 1030.5 |
| 20260906121833 | 66 | 118 | 0.0 | 0.0 | 0.00 | 0.00 | 0.00 | 41 | 1030.6 |
| 20260906120835 | 66 | 116 | 0.0 | 0.0 | 0.00 | 0.00 | 0.00 | 41 | 1030.6 |
| 20260906115835 | 65 | 134 | 0.0 | 0.0 | 0.00 | 0.00 | 0.00 | 41 | 1030.8 |
| 20260906113934 | 66 | 119 | 0.0 | 0.0 | 0.00 | 0.00 | 0.00 | 41 | 1031.1 |
| 20260906112933 | 66 | 197 | 0.0 | 0.0 | 0.00 | 0.00 | 0.00 | 41 | 1031.2 |
| 20260906111033 | 65 | 126 | 0.0 | 0.0 | 0.00 | 0.00 | 0.00 | 41 | 1031.4 |
| 20260906104136 | 66 | 162 | 0.0 | 0.0 | 0.00 | 0.00 | 0.00 | 40 | 1031.5 |
| 20260906102135 | 66 | 202 | 0.0 | 0.0 | 0.00 | 0.00 | 0.00 | 38 | 1031.4 |
| 20260906101137 | 66 | 225 | 0.0 | 0.0 | 0.00 | 0.00 | 0.00 | 40 | 1031.5 |
| 20260906095236 | 63 | 202 | 0.0 | 0.0 | 0.00 | 0.00 | 0.00 | 40 | 1032.0 |
| 20260906093334 | 63 | 206 | 0.0 | 0.0 | 0.00 | 0.00 | 0.00 | 41 | 1031.9 |
| 20260906092333 | 63 | 212 | 0.0 | 0.0 | 0.00 | 0.00 | 0.00 | 41 | 1031.7 |
| 20260906091335 | 62 | 180 | 0.0 | 0.0 | 0.00 | 0.00 | 0.00 | 41 | 1031.7 |
| 20260906090434 | 61 | 214 | 0.0 | 0.0 | 0.00 | 0.00 | 0.00 | 42 | 1031.7 |
| 20260906085434 | 60 | 202 | 0.0 | 0.0 | 0.00 | 0.00 | 0.00 | 42 | 1031.7 |
| 20260906084434 | 60 | 202 | 0.0 | 0.0 | 0.00 | 0.00 | 0.00 | 43 | 1031.7 |
| 20260906083437 | 59 | 205 | 0.0 | 0.0 | 0.00 | 0.00 | 0.00 | 42 | 1031.7 |
| 20260906082534 | 58 | 202 | 0.0 | 0.0 | 0.00 | 0.00 | 0.00 | 43 | 1031.7 |
| 20260906080534 | 56 | 202 | 0.0 | 0.0 | 0.00 | 0.00 | 0.00 | 44 | 1031.7 |
| 20260906074537 | 53 | 180 | 0.0 | 0.0 | 0.00 | 0.00 | 0.00 | 46 | 1031.7 |
| 20260906073533 | 52 | 180 | 0.0 | 0.0 | 0.00 | 0.00 | 0.00 | 46 | 1032.0 |
| 20260906072535 | 51 | 112 | 0.0 | 0.0 | 0.00 | 0.00 | 0.00 | 47 | 1031.7 |
| 20260906071633 | 50 | 180 | 0.0 | 0.0 | 0.00 | 0.00 | 0.00 | 47 | 1031.8 |
| 20260906070634 | 50 | 185 | 0.0 | 0.0 | 0.00 | 0.00 | 0.00 | 47 | 1031.7 |
| 20260906065733 | 49 | 112 | 0.0 | 0.0 | 0.00 | 0.00 | 0.00 | 47 | 1031.4 |
| 20260906064734 | 48 | 112 | 0.0 | 0.0 | 0.00 | 0.00 | 0.00 | 48 | 1031.6 |
| 20260906063735 | 47 | 112 | 0.0 | 0.0 | 0.00 | 0.00 | 0.00 | 48 | 1031.5 |
| 20260906062733 | 47 | 112 | 0.0 | 0.0 | 0.00 | 0.00 | 0.00 | 48 | 1031.5 |
| 20260906061735 | 47 | 112 | 0.0 | 0.0 | 0.00 | 0.00 | 0.00 | 48 | 1031.2 |
| 20260906055736 | 46 | 112 | 0.0 | 0.0 | 0.00 | 0.00 | 0.00 | 48 | 1031.0 |
| 20260906054833 | 46 | 112 | 0.0 | 0.0 | 0.00 | 0.00 | 0.00 | 48 | 1031.1 |
| 20260906053852 | 47 | 90 | 0.0 | 0.0 | 0.00 | 0.00 | 0.00 | 48 | 1031.0 |
| 20260906052834 | 47 | 112 | 0.0 | 0.0 | 0.00 | 0.00 | 0.00 | 48 | 1030.9 |
| 20260906051855 | 47 | 103 | 0.0 | 0.0 | 0.00 | 0.00 | 0.00 | 48 | 1031.1 |
| 20260906050835 | 47 | 90 | 0.0 | 0.0 | 0.00 | 0.00 | 0.00 | 48 | 1031.2 |
| 20260906045834 | 46 | 90 | 0.0 | 0.0 | 0.00 | 0.00 | 0.00 | 47 | 1031.2 |
| 20260906044835 | 46 | 105 | 0.0 | 0.0 | 0.00 | 0.00 | 0.00 | 47 | 1031.0 |
| 20260906043850 | 47 | 112 | 0.0 | 0.0 | 0.00 | 0.00 | 0.00 | 47 | 1031.1 |
| 20260906042935 | 46 | 112 | 0.0 | 0.0 | 0.00 | 0.00 | 0.00 | 47 | 1031.1 |
| 20260906041936 | 47 | 112 | 0.0 | 0.0 | 0.00 | 0.00 | 0.00 | 47 | 1031.1 |
| 20260906040035 | 47 | 202 | 0.0 | 0.0 | 0.00 | 0.00 | 0.00 | 47 | 1031.2 |
| 20260906034033 | 47 | 202 | 0.0 | 0.0 | 0.00 | 0.00 | 0.00 | 46 | 1031.5 |
| 20260906033037 | 47 | 202 | 0.0 | 0.0 | 0.00 | 0.00 | 0.00 | 47 | 1031.3 |
| 20260906032054 | 47 | 247 | 0.0 | 0.0 | 0.00 | 0.00 | 0.00 | 47 | 1031.4 |
| 20260906031035 | 47 | 247 | 0.0 | 0.0 | 0.00 | 0.00 | 0.00 | 47 | 1031.4 |
| 20260906030035 | 47 | 247 | 0.0 | 0.0 | 0.00 | 0.00 | 0.00 | 46 | 1031.3 |
| 20260906024051 | 48 | 247 | 0.0 | 0.0 | 0.00 | 0.00 | 0.00 | 46 | 1031.1 |
| 20260906023051 | 49 | 247 | 0.0 | 0.0 | 0.00 | 0.00 | 0.00 | 46 | 1031.0 |
| 20260906022035 | 49 | 247 | 0.0 | 0.0 | 0.00 | 0.00 | 0.00 | 46 | 1031.0 |
| 20260906021036 | 50 | 247 | 0.0 | 0.0 | 0.00 | 0.00 | 0.00 | 46 | 1031.1 |
| 20260906020035 | 51 | 247 | 0.0 | 0.0 | 0.00 | 0.00 | 0.00 | 45 | 1031.2 |
| 20260906015035 | 51 | 247 | 0.0 | 0.0 | 0.00 | 0.00 | 0.00 | 45 | 1031.2 |
| 20260906014034 | 51 | 232 | 0.0 | 0.0 | 0.00 | 0.00 | 0.00 | 45 | 1031.3 |
| 20260906013036 | 51 | 228 | 0.0 | 0.0 | 0.00 | 0.00 | 0.00 | 45 | 1031.3 |
| 20260906012034 | 51 | 228 | 0.0 | 0.0 | 0.00 | 0.00 | 0.00 | 45 | 1031.1 |
| 20260906011033 | 50 | 242 | 0.0 | 0.0 | 0.00 | 0.00 | 0.00 | 44 | 1031.0 |
| 20260906005035 | 49 | 270 | 0.0 | 0.0 | 0.00 | 0.00 | 0.00 | 45 | 1031.0 |
| 20260906003037 | 50 | 225 | 0.0 | 0.0 | 0.00 | 0.00 | 0.00 | 45 | 1031.0 |
| 20260906002034 | 51 | 270 | 0.0 | 0.0 | 0.00 | 0.00 | 0.00 | 45 | 1031.0 |
| 20260906001034 | 51 | 268 | 0.0 | 0.0 | 0.00 | 0.00 | 0.00 | 45 | 1031.0 |
| 20260906000036 | 51 | 247 | 0.0 | 0.0 | 0.00 | 0.00 | 0.00 | 45 | 1030.7 |
| 20260905234034 | 51 | 234 | 0.0 | 0.0 | 0.00 | 0.00 | 0.00 | 45 | 1030.7 |
| 20260905233035 | 51 | 247 | 0.0 | 0.0 | 0.00 | 0.00 | 0.00 | 43 | 1030.7 |
| 20260905232036 | 51 | 270 | 0.0 | 0.0 | 0.00 | 0.00 | 0.00 | 44 | 1030.8 |
| 20260905231035 | 52 | 270 | 0.0 | 0.0 | 0.00 | 0.00 | 0.00 | 43 | 1030.5 |
| 20260905230035 | 52 | 270 | 0.0 | 0.0 | 0.00 | 0.00 | 0.00 | 44 | 1030.3 |
| 20260905200456 | 57 | 273 | 0.0 | 0.0 | 0.00 | 0.00 | 0.00 | 42 | 1029.7 |
| 20260905195549 | 57 | 273 | 0.0 | 0.0 | 0.00 | 0.00 | 0.00 | 42 | 1029.7 |
| 20260905194645 | 57 | 273 | 0.0 | 0.0 | 0.00 | 0.00 | 0.00 | 42 | 1029.7 |
| 20260905193722 | 57 | 273 | 0.0 | 0.0 | 0.00 | 0.00 | 0.00 | 42 | 1029.7 |
| 20260905191918 | 58 | 271 | 0.0 | 0.0 | 0.00 | 0.00 | 0.00 | 42 | 1029.2 |
| 20260905180319 | 63 | 279 | 0.0 | 0.0 | 0.00 | 0.00 | 0.00 | 40 | 1022.7 |
| 20260905164758 | 63 | 277 | 0.0 | 0.0 | 0.00 | 0.00 | 0.00 | 41 | 1022.8 |
| 20260905135252 | 63 | 259 | 0.0 | 0.0 | 0.00 | 0.00 | 0.00 | 41 | 1022.5 |
| 20260905135245 | 63 | 249 | 0.0 | 0.0 | 0.00 | 0.00 | 0.00 | 41 | 1022.5 |